Tuesday, April 21, 2015, 7:18 PM EDT

KSBY, Salisbury-wicomico Cty Reg

Location: Salisbury, MD, United States Lat: 38.333
Local Time: 7:18 PM EDT (23:18 GMT) Lon: -75.5
Time Zone: US/Eastern Elev: 52 ft

Show me the last for .
Show Decoded

2015-04-21 18:54 METAR KSBY 212254Z 25008KT 10SM CLR 18/01 A2976 =
2015-04-21 17:54 METAR KSBY 212154Z 27011KT 10SM CLR 19/00 A2975 RMK AO2 SLP075 T01890000 =
2015-04-21 16:54 METAR KSBY 212054Z 25013G19KT 10SM FEW080 19/02 A2973 =
2015-04-21 15:54 METAR KSBY 211954Z 27011KT 10SM CLR 19/01 A2974 RMK AO2 SLP071 T01940006 =
2015-04-21 14:54 METAR KSBY 211854Z 26014G21KT 10SM CLR 19/01 A2975 RMK AO2 SLP076 T01890011 =
2015-04-21 13:54 METAR KSBY 211754Z 28015G19KT 10SM CLR 19/02 A2976 =
2015-04-21 12:54 METAR KSBY 211654Z 29011G18KT 10SM CLR 18/02 A2976 =
2015-04-21 11:54 METAR KSBY 211554Z 29014G21KT 10SM CLR 18/03 A2977 RMK AO2 SLP084 T01780028 =
2015-04-21 10:54 METAR KSBY 211454Z 30015G26KT 10SM FEW060 17/02 A2977 RMK AO2 PK WND 29027/1440
                 SLP084 T01670022 51012 =
2015-04-21 09:54 METAR KSBY 211354Z 31014G19KT 10SM BKN060 17/06 A2976 RMK AO2 SLP081 T01670056 =
2015-04-21 08:54 METAR KSBY 211254Z 31014G26KT 10SM BKN060 16/05 A2975 RMK AO2 PK WND 30026/1245
                 SLP077 T01560050 =
2015-04-21 07:54 METAR KSBY 211154Z 30018G30KT 10SM FEW027 SCT033 15/08 A2974 RMK AO2 PK WND
                 32030/1150 PRESRR SLP071 T01500083 10200 20150 53036 =
2015-04-21 06:54 METAR KSBY 211054Z 29008KT 260V320 10SM BKN055 16/11 A2968 =
2015-04-21 05:54 METAR KSBY 210954Z 30004KT 10SM BKN049 16/12 A2965 =
2015-04-21 05:02 METAR KSBY 210902Z AUTO 33008KT 10SM FEW029 BKN037 17/12 A2963 RMK AO2 T01670122
                 =
2015-04-21 04:54 METAR KSBY 210854Z AUTO 33012G17KT 10SM BKN029 BKN037 BKN044 18/12 A2963 =
2015-04-21 03:54 METAR KSBY 210754Z AUTO 23010KT 10SM FEW090 19/16 A2960 RMK AO2 SLP026 T01940156
                 =
2015-04-21 02:54 METAR KSBY 210654Z AUTO 22011G18KT 10SM FEW039 SCT120 20/16 A2960 RMK AO2 SLP024
                 T02000161 =
2015-04-21 01:54 METAR KSBY 210554Z AUTO 21010KT 10SM CLR 20/16 A2959 RMK AO2 SLP023 T02000156
                 10217 20189 56002 =
2015-04-21 00:54 METAR KSBY 210454Z AUTO 20018G25KT 10SM SCT100 21/16 A2959 RMK AO2 SLP023
                 T02110161 402440156 =
2015-04-20 23:54 METAR KSBY 210354Z AUTO 20012KT 10SM FEW080 BKN110 21/16 A2959 =
2015-04-20 22:54 METAR KSBY 210254Z AUTO 18008KT 10SM CLR 20/16 A2960 RMK AO2 SLP025 T02000156
                 56003 =
2015-04-20 21:54 METAR KSBY 210154Z 18010KT 10SM CLR 20/16 A2961 =
2015-04-20 20:54 METAR KSBY 210054Z 17007KT 10SM CLR 19/15 A2960 RMK AO2 SLP024 T01890150 =
2015-04-20 19:54 METAR KSBY 202354Z 17007KT 10SM CLR 19/16 A2961 RMK AO2 SLP028 T01940156 10244
                 20194 55002 =

Support USWX by starting your Amazon purchase here.